sensor_id;sensor_type;location;lat;lon;timestamp;P1;durP1;ratioP1;P2;durP2;ratioP2
28447;SDS011;15675;52.870;-1.416;2022-09-01T00:00:54;12.50;;;3.65;;
28447;SDS011;15675;52.870;-1.416;2022-09-01T00:03:20;16.13;;;5.00;;
28447;SDS011;15675;52.870;-1.416;2022-09-01T00:05:49;5.43;;;2.53;;
28447;SDS011;15675;52.870;-1.416;2022-09-01T00:08:19;7.75;;;3.20;;
28447;SDS011;15675;52.870;-1.416;2022-09-01T00:10:46;16.95;;;4.38;;
28447;SDS011;15675;52.870;-1.416;2022-09-01T00:13:12;10.73;;;3.53;;
28447;SDS011;15675;52.870;-1.416;2022-09-01T00:15:38;11.85;;;3.25;;
28447;SDS011;15675;52.870;-1.416;2022-09-01T00:18:04;8.13;;;2.92;;
28447;SDS011;15675;52.870;-1.416;2022-09-01T00:20:30;11.93;;;3.85;;
28447;SDS011;15675;52.870;-1.416;2022-09-01T00:22:55;17.08;;;3.97;;
28447;SDS011;15675;52.870;-1.416;2022-09-01T00:25:21;16.98;;;3.50;;
28447;SDS011;15675;52.870;-1.416;2022-09-01T00:27:49;12.65;;;3.30;;
28447;SDS011;15675;52.870;-1.416;2022-09-01T00:30:15;9.45;;;3.53;;
28447;SDS011;15675;52.870;-1.416;2022-09-01T00:32:42;12.32;;;3.92;;
28447;SDS011;15675;52.870;-1.416;2022-09-01T00:35:15;11.60;;;3.60;;
28447;SDS011;15675;52.870;-1.416;2022-09-01T00:37:42;13.68;;;3.17;;
28447;SDS011;15675;52.870;-1.416;2022-09-01T00:40:08;9.85;;;3.03;;
28447;SDS011;15675;52.870;-1.416;2022-09-01T00:42:37;15.13;;;3.58;;
28447;SDS011;15675;52.870;-1.416;2022-09-01T00:45:04;12.25;;;4.55;;
28447;SDS011;15675;52.870;-1.416;2022-09-01T00:47:30;11.85;;;3.70;;
28447;SDS011;15675;52.870;-1.416;2022-09-01T00:49:56;9.27;;;4.05;;
28447;SDS011;15675;52.870;-1.416;2022-09-01T00:52:28;14.88;;;3.70;;
28447;SDS011;15675;52.870;-1.416;2022-09-01T00:54:59;17.55;;;4.13;;
28447;SDS011;15675;52.870;-1.416;2022-09-01T00:57:31;10.88;;;3.50;;
28447;SDS011;15675;52.870;-1.416;2022-09-01T01:00:31;11.75;;;3.38;;
28447;SDS011;15675;52.870;-1.416;2022-09-01T01:02:51;13.50;;;3.95;;
28447;SDS011;15675;52.870;-1.416;2022-09-01T01:05:21;12.13;;;3.53;;
28447;SDS011;15675;52.870;-1.416;2022-09-01T01:07:52;8.77;;;2.83;;
28447;SDS011;15675;52.870;-1.416;2022-09-01T01:10:20;12.20;;;3.53;;
28447;SDS011;15675;52.870;-1.416;2022-09-01T01:12:47;10.85;;;3.15;;
28447;SDS011;15675;52.870;-1.416;2022-09-01T01:15:16;13.15;;;4.00;;
28447;SDS011;15675;52.870;-1.416;2022-09-01T01:17:43;12.25;;;3.35;;
28447;SDS011;15675;52.870;-1.416;2022-09-01T01:20:09;11.07;;;2.95;;
28447;SDS011;15675;52.870;-1.416;2022-09-01T01:23:19;11.95;;;3.15;;
28447;SDS011;15675;52.870;-1.416;2022-09-01T01:25:54;10.13;;;3.22;;
28447;SDS011;15675;52.870;-1.416;2022-09-01T01:28:26;18.65;;;3.55;;
28447;SDS011;15675;52.870;-1.416;2022-09-01T01:30:59;12.38;;;3.13;;
28447;SDS011;15675;52.870;-1.416;2022-09-01T01:33:35;18.35;;;3.30;;
28447;SDS011;15675;52.870;-1.416;2022-09-01T01:36:10;8.70;;;2.78;;
28447;SDS011;15675;52.870;-1.416;2022-09-01T01:38:41;19.88;;;3.42;;
28447;SDS011;15675;52.870;-1.416;2022-09-01T01:41:09;9.50;;;3.00;;
28447;SDS011;15675;52.870;-1.416;2022-09-01T01:43:36;20.38;;;3.97;;
28447;SDS011;15675;52.870;-1.416;2022-09-01T01:46:03;9.30;;;3.72;;
28447;SDS011;15675;52.870;-1.416;2022-09-01T01:48:30;10.73;;;3.30;;
28447;SDS011;15675;52.870;-1.416;2022-09-01T01:50:58;10.25;;;3.20;;
28447;SDS011;15675;52.870;-1.416;2022-09-01T01:53:25;15.65;;;3.80;;
28447;SDS011;15675;52.870;-1.416;2022-09-01T01:55:52;11.43;;;3.13;;
28447;SDS011;15675;52.870;-1.416;2022-09-01T01:58:19;9.90;;;3.30;;
28447;SDS011;15675;52.870;-1.416;2022-09-01T02:00:47;9.32;;;3.25;;
28447;SDS011;15675;52.870;-1.416;2022-09-01T02:03:15;11.60;;;3.95;;
28447;SDS011;15675;52.870;-1.416;2022-09-01T02:05:48;16.42;;;3.72;;
28447;SDS011;15675;52.870;-1.416;2022-09-01T02:08:15;11.90;;;3.83;;
28447;SDS011;15675;52.870;-1.416;2022-09-01T02:10:51;14.35;;;3.90;;
28447;SDS011;15675;52.870;-1.416;2022-09-01T02:13:18;14.23;;;3.65;;
28447;SDS011;15675;52.870;-1.416;2022-09-01T02:15:53;10.95;;;3.30;;
28447;SDS011;15675;52.870;-1.416;2022-09-01T02:18:21;17.27;;;4.22;;
28447;SDS011;15675;52.870;-1.416;2022-09-01T02:20:52;14.65;;;4.07;;
28447;SDS011;15675;52.870;-1.416;2022-09-01T02:23:19;11.00;;;3.55;;
28447;SDS011;15675;52.870;-1.416;2022-09-01T02:25:54;10.38;;;3.83;;
28447;SDS011;15675;52.870;-1.416;2022-09-01T02:28:25;14.57;;;3.55;;
28447;SDS011;15675;52.870;-1.416;2022-09-01T02:30:52;13.65;;;3.92;;
28447;SDS011;15675;52.870;-1.416;2022-09-01T02:33:19;12.88;;;4.43;;
28447;SDS011;15675;52.870;-1.416;2022-09-01T02:35:47;14.60;;;4.28;;
28447;SDS011;15675;52.870;-1.416;2022-09-01T02:38:18;11.23;;;3.90;;
28447;SDS011;15675;52.870;-1.416;2022-09-01T02:40:45;12.00;;;4.55;;
28447;SDS011;15675;52.870;-1.416;2022-09-01T02:43:12;11.20;;;3.80;;
28447;SDS011;15675;52.870;-1.416;2022-09-01T02:45:42;12.10;;;4.43;;
28447;SDS011;15675;52.870;-1.416;2022-09-01T02:48:08;12.52;;;4.57;;
28447;SDS011;15675;52.870;-1.416;2022-09-01T02:50:35;13.93;;;4.38;;
28447;SDS011;15675;52.870;-1.416;2022-09-01T02:53:02;17.90;;;5.25;;
28447;SDS011;15675;52.870;-1.416;2022-09-01T02:55:30;14.15;;;4.93;;
28447;SDS011;15675;52.870;-1.416;2022-09-01T02:57:56;18.20;;;4.93;;
28447;SDS011;15675;52.870;-1.416;2022-09-01T03:00:22;12.20;;;4.95;;
28447;SDS011;15675;52.870;-1.416;2022-09-01T03:02:59;12.57;;;4.38;;
28447;SDS011;15675;52.870;-1.416;2022-09-01T03:05:27;13.18;;;4.43;;
28447;SDS011;15675;52.870;-1.416;2022-09-01T03:07:58;16.45;;;5.40;;
28447;SDS011;15675;52.870;-1.416;2022-09-01T03:10:30;11.82;;;3.83;;
28447;SDS011;15675;52.870;-1.416;2022-09-01T03:13:03;9.48;;;4.28;;
28447;SDS011;15675;52.870;-1.416;2022-09-01T03:15:30;10.10;;;4.65;;
28447;SDS011;15675;52.870;-1.416;2022-09-01T03:17:57;17.23;;;5.68;;
28447;SDS011;15675;52.870;-1.416;2022-09-01T03:20:23;12.93;;;4.40;;
28447;SDS011;15675;52.870;-1.416;2022-09-01T03:22:49;12.32;;;4.80;;
28447;SDS011;15675;52.870;-1.416;2022-09-01T03:25:16;13.63;;;4.70;;
28447;SDS011;15675;52.870;-1.416;2022-09-01T03:27:43;13.70;;;3.90;;
28447;SDS011;15675;52.870;-1.416;2022-09-01T03:30:09;15.32;;;4.07;;
28447;SDS011;15675;52.870;-1.416;2022-09-01T03:32:35;12.27;;;3.17;;
28447;SDS011;15675;52.870;-1.416;2022-09-01T03:35:02;11.57;;;3.90;;
28447;SDS011;15675;52.870;-1.416;2022-09-01T03:37:28;12.35;;;4.50;;
28447;SDS011;15675;52.870;-1.416;2022-09-01T03:39:53;10.38;;;4.18;;
28447;SDS011;15675;52.870;-1.416;2022-09-01T03:42:19;16.40;;;4.40;;
28447;SDS011;15675;52.870;-1.416;2022-09-01T03:44:50;10.82;;;3.88;;
28447;SDS011;15675;52.870;-1.416;2022-09-01T03:47:17;10.05;;;4.22;;
28447;SDS011;15675;52.870;-1.416;2022-09-01T03:49:45;14.65;;;4.38;;
28447;SDS011;15675;52.870;-1.416;2022-09-01T03:52:14;9.77;;;3.97;;
28447;SDS011;15675;52.870;-1.416;2022-09-01T03:54:41;11.63;;;3.78;;
28447;SDS011;15675;52.870;-1.416;2022-09-01T03:57:08;22.20;;;4.10;;
28447;SDS011;15675;52.870;-1.416;2022-09-01T03:59:34;15.75;;;4.38;;
28447;SDS011;15675;52.870;-1.416;2022-09-01T04:02:03;12.65;;;4.07;;
28447;SDS011;15675;52.870;-1.416;2022-09-01T04:04:28;8.23;;;3.42;;
28447;SDS011;15675;52.870;-1.416;2022-09-01T04:06:57;9.85;;;4.05;;
28447;SDS011;15675;52.870;-1.416;2022-09-01T04:09:24;12.40;;;4.80;;
28447;SDS011;15675;52.870;-1.416;2022-09-01T04:11:51;15.82;;;4.63;;
28447;SDS011;15675;52.870;-1.416;2022-09-01T04:14:17;7.97;;;3.80;;
28447;SDS011;15675;52.870;-1.416;2022-09-01T04:16:43;7.80;;;4.15;;
28447;SDS011;15675;52.870;-1.416;2022-09-01T04:19:27;8.25;;;3.80;;
28447;SDS011;15675;52.870;-1.416;2022-09-01T04:21:58;15.45;;;4.05;;
28447;SDS011;15675;52.870;-1.416;2022-09-01T04:24:25;12.45;;;4.68;;
28447;SDS011;15675;52.870;-1.416;2022-09-01T04:26:53;10.77;;;4.28;;
28447;SDS011;15675;52.870;-1.416;2022-09-01T04:29:21;13.27;;;5.13;;
28447;SDS011;15675;52.870;-1.416;2022-09-01T04:31:53;12.23;;;4.15;;
28447;SDS011;15675;52.870;-1.416;2022-09-01T04:34:28;10.63;;;4.63;;
28447;SDS011;15675;52.870;-1.416;2022-09-01T04:39:27;14.38;;;4.35;;
28447;SDS011;15675;52.870;-1.416;2022-09-01T04:41:53;12.10;;;4.80;;
28447;SDS011;15675;52.870;-1.416;2022-09-01T04:44:19;14.85;;;5.72;;
28447;SDS011;15675;52.870;-1.416;2022-09-01T04:46:46;12.32;;;5.18;;
28447;SDS011;15675;52.870;-1.416;2022-09-01T04:49:12;9.07;;;4.45;;
28447;SDS011;15675;52.870;-1.416;2022-09-01T04:51:44;10.13;;;5.00;;
28447;SDS011;15675;52.870;-1.416;2022-09-01T04:54:11;13.55;;;4.55;;
28447;SDS011;15675;52.870;-1.416;2022-09-01T04:56:38;16.75;;;4.78;;
28447;SDS011;15675;52.870;-1.416;2022-09-01T04:59:07;12.52;;;4.68;;
28447;SDS011;15675;52.870;-1.416;2022-09-01T05:01:35;11.70;;;5.65;;
28447;SDS011;15675;52.870;-1.416;2022-09-01T05:04:08;17.58;;;5.93;;
28447;SDS011;15675;52.870;-1.416;2022-09-01T05:06:38;12.10;;;5.13;;
28447;SDS011;15675;52.870;-1.416;2022-09-01T05:09:08;19.27;;;5.32;;
28447;SDS011;15675;52.870;-1.416;2022-09-01T05:11:36;16.73;;;5.20;;
28447;SDS011;15675;52.870;-1.416;2022-09-01T05:14:03;14.35;;;5.20;;
28447;SDS011;15675;52.870;-1.416;2022-09-01T05:16:29;15.93;;;4.95;;
28447;SDS011;15675;52.870;-1.416;2022-09-01T05:18:55;17.60;;;4.93;;
28447;SDS011;15675;52.870;-1.416;2022-09-01T05:21:22;10.60;;;4.95;;
28447;SDS011;15675;52.870;-1.416;2022-09-01T05:23:52;13.80;;;5.68;;
28447;SDS011;15675;52.870;-1.416;2022-09-01T05:26:23;13.40;;;5.13;;
28447;SDS011;15675;52.870;-1.416;2022-09-01T05:29:01;15.48;;;5.18;;
28447;SDS011;15675;52.870;-1.416;2022-09-01T05:31:28;15.43;;;5.05;;
28447;SDS011;15675;52.870;-1.416;2022-09-01T05:33:59;12.18;;;4.85;;
28447;SDS011;15675;52.870;-1.416;2022-09-01T05:36:26;21.70;;;5.55;;
28447;SDS011;15675;52.870;-1.416;2022-09-01T05:38:57;15.20;;;4.93;;
28447;SDS011;15675;52.870;-1.416;2022-09-01T05:41:24;10.98;;;4.60;;
28447;SDS011;15675;52.870;-1.416;2022-09-01T05:43:50;14.68;;;5.03;;
28447;SDS011;15675;52.870;-1.416;2022-09-01T05:46:18;17.10;;;4.53;;
28447;SDS011;15675;52.870;-1.416;2022-09-01T05:48:46;18.50;;;5.10;;
28447;SDS011;15675;52.870;-1.416;2022-09-01T05:51:14;10.52;;;4.68;;
28447;SDS011;15675;52.870;-1.416;2022-09-01T05:53:44;9.88;;;4.57;;
28447;SDS011;15675;52.870;-1.416;2022-09-01T05:56:11;12.68;;;4.22;;
28447;SDS011;15675;52.870;-1.416;2022-09-01T05:58:39;10.02;;;4.40;;
28447;SDS011;15675;52.870;-1.416;2022-09-01T06:01:06;12.73;;;4.82;;
28447;SDS011;15675;52.870;-1.416;2022-09-01T06:03:33;12.23;;;3.85;;
28447;SDS011;15675;52.870;-1.416;2022-09-01T06:06:03;9.68;;;4.05;;
28447;SDS011;15675;52.870;-1.416;2022-09-01T06:08:33;11.05;;;3.65;;
28447;SDS011;15675;52.870;-1.416;2022-09-01T06:11:00;16.42;;;3.78;;
28447;SDS011;15675;52.870;-1.416;2022-09-01T06:13:25;11.27;;;3.65;;
28447;SDS011;15675;52.870;-1.416;2022-09-01T06:15:51;10.20;;;3.53;;
28447;SDS011;15675;52.870;-1.416;2022-09-01T06:18:22;9.70;;;3.65;;
28447;SDS011;15675;52.870;-1.416;2022-09-01T06:20:48;11.60;;;3.75;;
28447;SDS011;15675;52.870;-1.416;2022-09-01T06:23:14;17.77;;;4.07;;
28447;SDS011;15675;52.870;-1.416;2022-09-01T06:25:41;9.13;;;3.17;;
28447;SDS011;15675;52.870;-1.416;2022-09-01T06:28:14;11.95;;;3.05;;
28447;SDS011;15675;52.870;-1.416;2022-09-01T06:30:42;11.93;;;3.00;;
28447;SDS011;15675;52.870;-1.416;2022-09-01T06:33:10;9.43;;;2.63;;
28447;SDS011;15675;52.870;-1.416;2022-09-01T06:35:38;9.15;;;2.88;;
28447;SDS011;15675;52.870;-1.416;2022-09-01T06:38:06;8.32;;;2.95;;
28447;SDS011;15675;52.870;-1.416;2022-09-01T06:40:34;11.90;;;3.05;;
28447;SDS011;15675;52.870;-1.416;2022-09-01T06:43:06;12.93;;;3.60;;
28447;SDS011;15675;52.870;-1.416;2022-09-01T06:45:36;13.40;;;2.85;;
28447;SDS011;15675;52.870;-1.416;2022-09-01T06:48:18;5.93;;;2.47;;
28447;SDS011;15675;52.870;-1.416;2022-09-01T06:50:44;11.68;;;2.45;;
28447;SDS011;15675;52.870;-1.416;2022-09-01T06:53:10;9.80;;;2.20;;
28447;SDS011;15675;52.870;-1.416;2022-09-01T06:55:38;7.60;;;2.20;;
28447;SDS011;15675;52.870;-1.416;2022-09-01T06:58:06;5.88;;;1.85;;
28447;SDS011;15675;52.870;-1.416;2022-09-01T07:00:36;7.22;;;2.13;;
28447;SDS011;15675;52.870;-1.416;2022-09-01T07:03:10;15.70;;;2.20;;
28447;SDS011;15675;52.870;-1.416;2022-09-01T07:05:42;6.82;;;1.85;;
28447;SDS011;15675;52.870;-1.416;2022-09-01T07:08:11;5.30;;;1.60;;
28447;SDS011;15675;52.870;-1.416;2022-09-01T07:10:43;4.35;;;1.58;;
28447;SDS011;15675;52.870;-1.416;2022-09-01T07:13:14;7.32;;;1.70;;
28447;SDS011;15675;52.870;-1.416;2022-09-01T07:15:47;6.68;;;1.45;;
28447;SDS011;15675;52.870;-1.416;2022-09-01T07:18:18;6.68;;;1.60;;
28447;SDS011;15675;52.870;-1.416;2022-09-01T07:20:45;4.15;;;1.70;;
28447;SDS011;15675;52.870;-1.416;2022-09-01T07:23:15;8.65;;;1.83;;
28447;SDS011;15675;52.870;-1.416;2022-09-01T07:25:49;4.82;;;1.55;;
28447;SDS011;15675;52.870;-1.416;2022-09-01T07:28:19;5.47;;;1.45;;
28447;SDS011;15675;52.870;-1.416;2022-09-01T07:30:50;3.28;;;1.33;;
28447;SDS011;15675;52.870;-1.416;2022-09-01T07:33:19;8.45;;;1.38;;
28447;SDS011;15675;52.870;-1.416;2022-09-01T07:35:49;4.40;;;1.17;;
28447;SDS011;15675;52.870;-1.416;2022-09-01T07:38:17;4.10;;;1.10;;
28447;SDS011;15675;52.870;-1.416;2022-09-01T07:40:44;4.30;;;1.42;;
28447;SDS011;15675;52.870;-1.416;2022-09-01T07:43:18;7.45;;;1.63;;
28447;SDS011;15675;52.870;-1.416;2022-09-01T07:45:48;8.57;;;1.42;;
28447;SDS011;15675;52.870;-1.416;2022-09-01T07:48:16;10.52;;;1.63;;
28447;SDS011;15675;52.870;-1.416;2022-09-01T07:50:45;3.80;;;0.88;;
28447;SDS011;15675;52.870;-1.416;2022-09-01T07:53:13;10.88;;;1.70;;
28447;SDS011;15675;52.870;-1.416;2022-09-01T07:55:43;6.30;;;0.95;;
28447;SDS011;15675;52.870;-1.416;2022-09-01T07:58:10;4.50;;;1.05;;
28447;SDS011;15675;52.870;-1.416;2022-09-01T08:00:39;8.10;;;1.63;;
28447;SDS011;15675;52.870;-1.416;2022-09-01T08:03:08;7.03;;;1.35;;
28447;SDS011;15675;52.870;-1.416;2022-09-01T08:05:34;3.83;;;0.70;;
28447;SDS011;15675;52.870;-1.416;2022-09-01T08:07:59;9.07;;;1.15;;
28447;SDS011;15675;52.870;-1.416;2022-09-01T08:10:25;7.25;;;1.25;;
28447;SDS011;15675;52.870;-1.416;2022-09-01T08:12:51;9.50;;;1.02;;
28447;SDS011;15675;52.870;-1.416;2022-09-01T08:15:16;6.38;;;1.10;;
28447;SDS011;15675;52.870;-1.416;2022-09-01T08:17:42;3.00;;;0.82;;
28447;SDS011;15675;52.870;-1.416;2022-09-01T08:20:09;6.90;;;0.77;;
28447;SDS011;15675;52.870;-1.416;2022-09-01T08:22:35;2.45;;;0.50;;
28447;SDS011;15675;52.870;-1.416;2022-09-01T08:25:06;2.35;;;0.65;;
28447;SDS011;15675;52.870;-1.416;2022-09-01T08:27:33;4.80;;;1.05;;
28447;SDS011;15675;52.870;-1.416;2022-09-01T08:30:02;10.35;;;1.05;;
28447;SDS011;15675;52.870;-1.416;2022-09-01T08:32:29;6.30;;;2.05;;
28447;SDS011;15675;52.870;-1.416;2022-09-01T08:34:55;2.70;;;0.80;;
28447;SDS011;15675;52.870;-1.416;2022-09-01T08:37:21;2.80;;;0.60;;
28447;SDS011;15675;52.870;-1.416;2022-09-01T08:39:47;6.50;;;0.90;;
28447;SDS011;15675;52.870;-1.416;2022-09-01T08:47:42;4.38;;;0.75;;
28447;SDS011;15675;52.870;-1.416;2022-09-01T08:50:18;2.60;;;0.85;;
28447;SDS011;15675;52.870;-1.416;2022-09-01T08:52:51;3.05;;;0.98;;
28447;SDS011;15675;52.870;-1.416;2022-09-01T08:55:53;15.73;;;1.85;;
28447;SDS011;15675;52.870;-1.416;2022-09-01T08:58:21;11.75;;;1.30;;
28447;SDS011;15675;52.870;-1.416;2022-09-01T09:00:48;3.42;;;1.10;;
28447;SDS011;15675;52.870;-1.416;2022-09-01T09:06:30;2.72;;;0.77;;
28447;SDS011;15675;52.870;-1.416;2022-09-01T09:09:07;6.80;;;0.98;;
28447;SDS011;15675;52.870;-1.416;2022-09-01T09:17:22;6.85;;;0.95;;
28447;SDS011;15675;52.870;-1.416;2022-09-01T09:19:53;5.63;;;0.77;;
28447;SDS011;15675;52.870;-1.416;2022-09-01T09:22:19;3.50;;;1.00;;
28447;SDS011;15675;52.870;-1.416;2022-09-01T09:24:49;2.90;;;1.10;;
28447;SDS011;15675;52.870;-1.416;2022-09-01T09:27:16;5.63;;;1.17;;
28447;SDS011;15675;52.870;-1.416;2022-09-01T09:30:18;3.13;;;0.80;;
28447;SDS011;15675;52.870;-1.416;2022-09-01T09:43:31;4.10;;;1.50;;
28447;SDS011;15675;52.870;-1.416;2022-09-01T09:46:21;2.92;;;0.93;;
28447;SDS011;15675;52.870;-1.416;2022-09-01T09:54:34;5.63;;;0.82;;
28447;SDS011;15675;52.870;-1.416;2022-09-01T09:59:39;3.25;;;0.70;;
28447;SDS011;15675;52.870;-1.416;2022-09-01T10:02:23;2.80;;;0.80;;
28447;SDS011;15675;52.870;-1.416;2022-09-01T10:04:52;3.95;;;0.70;;
28447;SDS011;15675;52.870;-1.416;2022-09-01T10:07:23;3.63;;;0.63;;
28447;SDS011;15675;52.870;-1.416;2022-09-01T10:09:49;5.60;;;1.10;;
28447;SDS011;15675;52.870;-1.416;2022-09-01T10:12:15;5.30;;;0.88;;
28447;SDS011;15675;52.870;-1.416;2022-09-01T10:14:47;0.63;;;0.32;;
28447;SDS011;15675;52.870;-1.416;2022-09-01T10:17:18;3.47;;;0.90;;
28447;SDS011;15675;52.870;-1.416;2022-09-01T10:20:00;3.22;;;0.85;;
28447;SDS011;15675;52.870;-1.416;2022-09-01T10:22:30;6.70;;;0.90;;
28447;SDS011;15675;52.870;-1.416;2022-09-01T10:24:57;5.50;;;0.80;;
28447;SDS011;15675;52.870;-1.416;2022-09-01T10:27:26;5.38;;;0.75;;
28447;SDS011;15675;52.870;-1.416;2022-09-01T10:29:56;3.58;;;0.70;;
28447;SDS011;15675;52.870;-1.416;2022-09-01T10:32:28;4.45;;;0.85;;
28447;SDS011;15675;52.870;-1.416;2022-09-01T10:34:58;6.72;;;0.70;;
28447;SDS011;15675;52.870;-1.416;2022-09-01T10:37:25;1.88;;;0.80;;
28447;SDS011;15675;52.870;-1.416;2022-09-01T10:42:45;2.92;;;0.75;;
28447;SDS011;15675;52.870;-1.416;2022-09-01T10:45:17;5.88;;;0.80;;
28447;SDS011;15675;52.870;-1.416;2022-09-01T10:47:53;1.75;;;0.57;;
28447;SDS011;15675;52.870;-1.416;2022-09-01T10:50:29;4.13;;;0.65;;
28447;SDS011;15675;52.870;-1.416;2022-09-01T10:53:04;7.75;;;1.13;;
28447;SDS011;15675;52.870;-1.416;2022-09-01T10:55:35;5.85;;;0.80;;
28447;SDS011;15675;52.870;-1.416;2022-09-01T10:58:19;6.25;;;0.88;;
28447;SDS011;15675;52.870;-1.416;2022-09-01T11:00:53;2.72;;;0.63;;
28447;SDS011;15675;52.870;-1.416;2022-09-01T11:05:58;4.28;;;1.30;;
28447;SDS011;15675;52.870;-1.416;2022-09-01T11:13:41;2.90;;;0.73;;
28447;SDS011;15675;52.870;-1.416;2022-09-01T11:16:24;4.15;;;0.50;;
28447;SDS011;15675;52.870;-1.416;2022-09-01T11:18:49;11.00;;;1.27;;
28447;SDS011;15675;52.870;-1.416;2022-09-01T11:21:22;4.80;;;1.02;;
28447;SDS011;15675;52.870;-1.416;2022-09-01T11:24:34;6.28;;;0.80;;
28447;SDS011;15675;52.870;-1.416;2022-09-01T11:27:10;7.70;;;0.63;;
28447;SDS011;15675;52.870;-1.416;2022-09-01T11:30:01;4.20;;;0.70;;
28447;SDS011;15675;52.870;-1.416;2022-09-01T11:32:36;4.50;;;0.68;;
28447;SDS011;15675;52.870;-1.416;2022-09-01T11:35:04;1.65;;;0.80;;
28447;SDS011;15675;52.870;-1.416;2022-09-01T11:37:37;3.38;;;0.80;;
28447;SDS011;15675;52.870;-1.416;2022-09-01T11:40:04;2.50;;;0.65;;
28447;SDS011;15675;52.870;-1.416;2022-09-01T11:42:36;3.75;;;0.70;;
28447;SDS011;15675;52.870;-1.416;2022-09-01T11:47:46;5.45;;;0.68;;
28447;SDS011;15675;52.870;-1.416;2022-09-01T11:52:58;3.22;;;0.55;;
28447;SDS011;15675;52.870;-1.416;2022-09-01T11:55:43;10.10;;;1.27;;
28447;SDS011;15675;52.870;-1.416;2022-09-01T12:00:39;2.97;;;0.50;;
28447;SDS011;15675;52.870;-1.416;2022-09-01T12:03:26;4.20;;;0.50;;
28447;SDS011;15675;52.870;-1.416;2022-09-01T12:05:54;4.40;;;0.77;;
28447;SDS011;15675;52.870;-1.416;2022-09-01T12:08:25;4.85;;;0.70;;
28447;SDS011;15675;52.870;-1.416;2022-09-01T12:11:02;8.13;;;1.00;;
28447;SDS011;15675;52.870;-1.416;2022-09-01T12:13:32;3.67;;;1.30;;
28447;SDS011;15675;52.870;-1.416;2022-09-01T12:16:00;2.40;;;0.50;;
28447;SDS011;15675;52.870;-1.416;2022-09-01T12:18:29;2.30;;;0.70;;
28447;SDS011;15675;52.870;-1.416;2022-09-01T12:20:59;3.78;;;0.95;;
28447;SDS011;15675;52.870;-1.416;2022-09-01T12:23:30;5.63;;;0.70;;
28447;SDS011;15675;52.870;-1.416;2022-09-01T12:26:18;3.07;;;0.50;;
28447;SDS011;15675;52.870;-1.416;2022-09-01T12:28:47;4.82;;;0.80;;
28447;SDS011;15675;52.870;-1.416;2022-09-01T12:31:17;4.57;;;1.13;;
28447;SDS011;15675;52.870;-1.416;2022-09-01T12:33:46;2.28;;;0.70;;
28447;SDS011;15675;52.870;-1.416;2022-09-01T12:38:37;2.60;;;1.20;;
28447;SDS011;15675;52.870;-1.416;2022-09-01T12:41:03;4.32;;;0.68;;
28447;SDS011;15675;52.870;-1.416;2022-09-01T12:43:50;2.40;;;0.65;;
28447;SDS011;15675;52.870;-1.416;2022-09-01T12:49:15;4.88;;;0.80;;
28447;SDS011;15675;52.870;-1.416;2022-09-01T12:51:46;1.55;;;0.47;;
28447;SDS011;15675;52.870;-1.416;2022-09-01T12:54:12;1.40;;;0.70;;
28447;SDS011;15675;52.870;-1.416;2022-09-01T12:56:38;6.03;;;0.88;;
28447;SDS011;15675;52.870;-1.416;2022-09-01T12:59:06;2.28;;;0.82;;
28447;SDS011;15675;52.870;-1.416;2022-09-01T13:01:35;1.65;;;0.70;;
28447;SDS011;15675;52.870;-1.416;2022-09-01T13:04:12;3.10;;;0.50;;
28447;SDS011;15675;52.870;-1.416;2022-09-01T13:06:56;3.67;;;0.93;;
28447;SDS011;15675;52.870;-1.416;2022-09-01T13:09:26;3.72;;;0.77;;
28447;SDS011;15675;52.870;-1.416;2022-09-01T13:11:51;3.22;;;1.00;;
28447;SDS011;15675;52.870;-1.416;2022-09-01T13:14:17;3.60;;;0.68;;
28447;SDS011;15675;52.870;-1.416;2022-09-01T13:16:43;3.47;;;0.60;;
28447;SDS011;15675;52.870;-1.416;2022-09-01T13:19:09;6.85;;;0.98;;
28447;SDS011;15675;52.870;-1.416;2022-09-01T13:21:35;3.33;;;0.77;;
28447;SDS011;15675;52.870;-1.416;2022-09-01T13:24:01;4.85;;;0.93;;
28447;SDS011;15675;52.870;-1.416;2022-09-01T13:26:29;1.95;;;0.63;;
28447;SDS011;15675;52.870;-1.416;2022-09-01T13:28:56;0.82;;;0.40;;
28447;SDS011;15675;52.870;-1.416;2022-09-01T13:31:22;2.75;;;0.40;;
28447;SDS011;15675;52.870;-1.416;2022-09-01T13:33:48;5.88;;;0.80;;
28447;SDS011;15675;52.870;-1.416;2022-09-01T13:36:13;2.85;;;0.63;;
28447;SDS011;15675;52.870;-1.416;2022-09-01T13:38:39;4.50;;;0.70;;
28447;SDS011;15675;52.870;-1.416;2022-09-01T13:41:05;5.70;;;1.08;;
28447;SDS011;15675;52.870;-1.416;2022-09-01T13:43:30;5.70;;;0.65;;
28447;SDS011;15675;52.870;-1.416;2022-09-01T13:45:58;3.47;;;1.02;;
28447;SDS011;15675;52.870;-1.416;2022-09-01T13:48:23;3.72;;;0.80;;
28447;SDS011;15675;52.870;-1.416;2022-09-01T13:50:49;1.50;;;0.60;;
28447;SDS011;15675;52.870;-1.416;2022-09-01T13:53:17;2.22;;;0.50;;
28447;SDS011;15675;52.870;-1.416;2022-09-01T13:55:43;7.97;;;0.85;;
28447;SDS011;15675;52.870;-1.416;2022-09-01T13:58:09;10.13;;;1.00;;
28447;SDS011;15675;52.870;-1.416;2022-09-01T14:00:40;5.40;;;0.60;;
28447;SDS011;15675;52.870;-1.416;2022-09-01T14:03:10;2.33;;;0.60;;
28447;SDS011;15675;52.870;-1.416;2022-09-01T14:05:41;3.72;;;0.80;;
28447;SDS011;15675;52.870;-1.416;2022-09-01T14:08:09;2.58;;;0.73;;
28447;SDS011;15675;52.870;-1.416;2022-09-01T14:10:41;4.78;;;0.40;;
28447;SDS011;15675;52.870;-1.416;2022-09-01T14:13:13;8.20;;;1.25;;
28447;SDS011;15675;52.870;-1.416;2022-09-01T14:15:39;2.97;;;0.80;;
28447;SDS011;15675;52.870;-1.416;2022-09-01T14:18:05;4.13;;;1.00;;
28447;SDS011;15675;52.870;-1.416;2022-09-01T14:20:33;2.72;;;0.57;;
28447;SDS011;15675;52.870;-1.416;2022-09-01T14:23:04;6.43;;;0.60;;
28447;SDS011;15675;52.870;-1.416;2022-09-01T14:25:31;4.32;;;0.90;;
28447;SDS011;15675;52.870;-1.416;2022-09-01T14:27:58;3.83;;;0.52;;
28447;SDS011;15675;52.870;-1.416;2022-09-01T14:30:27;5.50;;;0.82;;
28447;SDS011;15675;52.870;-1.416;2022-09-01T14:32:53;5.95;;;0.93;;
28447;SDS011;15675;52.870;-1.416;2022-09-01T14:35:20;4.05;;;0.63;;
28447;SDS011;15675;52.870;-1.416;2022-09-01T14:37:49;3.90;;;0.75;;
28447;SDS011;15675;52.870;-1.416;2022-09-01T14:40:15;5.20;;;0.98;;
28447;SDS011;15675;52.870;-1.416;2022-09-01T14:42:44;2.00;;;0.70;;
28447;SDS011;15675;52.870;-1.416;2022-09-01T14:45:14;3.60;;;0.70;;
28447;SDS011;15675;52.870;-1.416;2022-09-01T14:47:42;1.55;;;0.63;;
28447;SDS011;15675;52.870;-1.416;2022-09-01T14:50:09;2.65;;;0.75;;
28447;SDS011;15675;52.870;-1.416;2022-09-01T14:52:36;4.20;;;0.73;;
28447;SDS011;15675;52.870;-1.416;2022-09-01T14:55:02;4.30;;;0.77;;
28447;SDS011;15675;52.870;-1.416;2022-09-01T14:57:29;3.92;;;0.80;;
28447;SDS011;15675;52.870;-1.416;2022-09-01T14:59:56;2.90;;;0.60;;
28447;SDS011;15675;52.870;-1.416;2022-09-01T15:02:23;5.10;;;0.63;;
28447;SDS011;15675;52.870;-1.416;2022-09-01T15:04:49;4.93;;;0.90;;
28447;SDS011;15675;52.870;-1.416;2022-09-01T15:07:15;3.72;;;0.70;;
28447;SDS011;15675;52.870;-1.416;2022-09-01T15:09:41;3.78;;;1.00;;
28447;SDS011;15675;52.870;-1.416;2022-09-01T15:12:07;3.55;;;0.88;;
28447;SDS011;15675;52.870;-1.416;2022-09-01T15:14:33;4.10;;;0.70;;
28447;SDS011;15675;52.870;-1.416;2022-09-01T15:17:00;7.90;;;0.90;;
28447;SDS011;15675;52.870;-1.416;2022-09-01T15:19:26;1.92;;;0.60;;
28447;SDS011;15675;52.870;-1.416;2022-09-01T15:21:51;5.88;;;0.90;;
28447;SDS011;15675;52.870;-1.416;2022-09-01T15:24:17;3.95;;;0.73;;
28447;SDS011;15675;52.870;-1.416;2022-09-01T15:26:43;4.40;;;0.70;;
28447;SDS011;15675;52.870;-1.416;2022-09-01T15:29:11;2.88;;;0.88;;
28447;SDS011;15675;52.870;-1.416;2022-09-01T15:31:40;5.15;;;0.73;;
28447;SDS011;15675;52.870;-1.416;2022-09-01T15:34:09;4.32;;;0.88;;
28447;SDS011;15675;52.870;-1.416;2022-09-01T15:36:36;1.98;;;0.38;;
28447;SDS011;15675;52.870;-1.416;2022-09-01T15:39:07;4.30;;;1.02;;
28447;SDS011;15675;52.870;-1.416;2022-09-01T15:41:33;2.83;;;0.90;;